sensor_id;sensor_type;location;lat;lon;timestamp;P1;durP1;ratioP1;P2;durP2;ratioP2
19111;SDS011;9688;51.906;8.376;2022-11-15T00:01:31;10.23;;;7.63;;
19111;SDS011;9688;51.906;8.376;2022-11-15T00:04:18;11.03;;;7.00;;
19111;SDS011;9688;51.906;8.376;2022-11-15T00:07:04;8.83;;;6.63;;
19111;SDS011;9688;51.906;8.376;2022-11-15T00:09:50;9.77;;;6.70;;
19111;SDS011;9688;51.906;8.376;2022-11-15T00:12:35;9.30;;;6.83;;
19111;SDS011;9688;51.906;8.376;2022-11-15T00:15:21;12.87;;;7.17;;
19111;SDS011;9688;51.906;8.376;2022-11-15T00:18:10;8.13;;;6.53;;
19111;SDS011;9688;51.906;8.376;2022-11-15T00:21:04;9.87;;;6.87;;
19111;SDS011;9688;51.906;8.376;2022-11-15T00:23:51;8.17;;;6.77;;
19111;SDS011;9688;51.906;8.376;2022-11-15T00:26:36;9.90;;;6.20;;
19111;SDS011;9688;51.906;8.376;2022-11-15T00:29:22;9.13;;;6.70;;
19111;SDS011;9688;51.906;8.376;2022-11-15T00:32:08;8.30;;;6.03;;
19111;SDS011;9688;51.906;8.376;2022-11-15T00:34:53;8.00;;;5.87;;
19111;SDS011;9688;51.906;8.376;2022-11-15T00:37:41;8.20;;;6.53;;
19111;SDS011;9688;51.906;8.376;2022-11-15T00:40:26;10.53;;;7.33;;
19111;SDS011;9688;51.906;8.376;2022-11-15T00:43:12;8.43;;;6.10;;
19111;SDS011;9688;51.906;8.376;2022-11-15T00:45:58;8.80;;;6.30;;
19111;SDS011;9688;51.906;8.376;2022-11-15T00:48:44;8.30;;;5.93;;
19111;SDS011;9688;51.906;8.376;2022-11-15T00:51:29;8.60;;;6.00;;
19111;SDS011;9688;51.906;8.376;2022-11-15T00:54:16;9.37;;;6.33;;
19111;SDS011;9688;51.906;8.376;2022-11-15T00:57:01;8.87;;;6.27;;
19111;SDS011;9688;51.906;8.376;2022-11-15T00:59:47;8.30;;;5.97;;
19111;SDS011;9688;51.906;8.376;2022-11-15T01:02:34;10.60;;;6.40;;
19111;SDS011;9688;51.906;8.376;2022-11-15T01:05:19;7.33;;;5.83;;
19111;SDS011;9688;51.906;8.376;2022-11-15T01:08:05;8.93;;;6.33;;
19111;SDS011;9688;51.906;8.376;2022-11-15T01:10:52;11.53;;;6.27;;
19111;SDS011;9688;51.906;8.376;2022-11-15T01:13:38;10.93;;;6.73;;
19111;SDS011;9688;51.906;8.376;2022-11-15T01:16:24;8.13;;;6.13;;
19111;SDS011;9688;51.906;8.376;2022-11-15T01:19:10;7.60;;;6.13;;
19111;SDS011;9688;51.906;8.376;2022-11-15T01:21:55;11.90;;;6.77;;
19111;SDS011;9688;51.906;8.376;2022-11-15T01:24:41;11.80;;;6.60;;
19111;SDS011;9688;51.906;8.376;2022-11-15T01:27:28;11.40;;;6.33;;
19111;SDS011;9688;51.906;8.376;2022-11-15T01:30:14;11.07;;;6.60;;
19111;SDS011;9688;51.906;8.376;2022-11-15T01:33:03;14.67;;;6.67;;
19111;SDS011;9688;51.906;8.376;2022-11-15T01:35:48;9.07;;;6.40;;
19111;SDS011;9688;51.906;8.376;2022-11-15T01:38:34;9.03;;;6.00;;
19111;SDS011;9688;51.906;8.376;2022-11-15T01:41:20;11.20;;;6.50;;
19111;SDS011;9688;51.906;8.376;2022-11-15T01:44:31;8.23;;;6.17;;
19111;SDS011;9688;51.906;8.376;2022-11-15T01:47:24;10.13;;;6.47;;
19111;SDS011;9688;51.906;8.376;2022-11-15T01:50:17;8.10;;;6.03;;
19111;SDS011;9688;51.906;8.376;2022-11-15T01:53:07;10.23;;;5.90;;
19111;SDS011;9688;51.906;8.376;2022-11-15T01:55:54;7.77;;;6.40;;
19111;SDS011;9688;51.906;8.376;2022-11-15T01:58:41;10.73;;;6.87;;
19111;SDS011;9688;51.906;8.376;2022-11-15T02:01:30;9.60;;;6.57;;
19111;SDS011;9688;51.906;8.376;2022-11-15T02:04:20;12.27;;;6.30;;
19111;SDS011;9688;51.906;8.376;2022-11-15T02:07:11;9.07;;;6.50;;
19111;SDS011;9688;51.906;8.376;2022-11-15T02:09:59;9.27;;;6.83;;
19111;SDS011;9688;51.906;8.376;2022-11-15T02:12:52;13.77;;;6.70;;
19111;SDS011;9688;51.906;8.376;2022-11-15T02:15:41;11.03;;;7.33;;
19111;SDS011;9688;51.906;8.376;2022-11-15T02:18:37;12.50;;;7.03;;
19111;SDS011;9688;51.906;8.376;2022-11-15T02:21:28;10.20;;;6.93;;
19111;SDS011;9688;51.906;8.376;2022-11-15T02:24:36;10.90;;;6.67;;
19111;SDS011;9688;51.906;8.376;2022-11-15T02:27:54;11.57;;;7.10;;
19111;SDS011;9688;51.906;8.376;2022-11-15T02:31:03;10.00;;;7.00;;
19111;SDS011;9688;51.906;8.376;2022-11-15T02:33:53;8.50;;;6.73;;
19111;SDS011;9688;51.906;8.376;2022-11-15T02:36:52;9.27;;;6.63;;
19111;SDS011;9688;51.906;8.376;2022-11-15T02:39:46;12.93;;;6.80;;
19111;SDS011;9688;51.906;8.376;2022-11-15T02:42:37;9.57;;;6.83;;
19111;SDS011;9688;51.906;8.376;2022-11-15T02:45:48;8.57;;;6.47;;
19111;SDS011;9688;51.906;8.376;2022-11-15T02:48:41;12.20;;;6.83;;
19111;SDS011;9688;51.906;8.376;2022-11-15T02:51:28;13.23;;;7.23;;
19111;SDS011;9688;51.906;8.376;2022-11-15T02:54:15;11.23;;;7.53;;
19111;SDS011;9688;51.906;8.376;2022-11-15T02:57:07;9.73;;;6.90;;
19111;SDS011;9688;51.906;8.376;2022-11-15T03:00:07;14.43;;;7.40;;
19111;SDS011;9688;51.906;8.376;2022-11-15T03:03:08;12.47;;;7.03;;
19111;SDS011;9688;51.906;8.376;2022-11-15T03:06:10;8.50;;;6.60;;
19111;SDS011;9688;51.906;8.376;2022-11-15T03:09:07;12.73;;;7.23;;
19111;SDS011;9688;51.906;8.376;2022-11-15T03:11:59;10.80;;;6.57;;
19111;SDS011;9688;51.906;8.376;2022-11-15T03:14:54;10.23;;;7.20;;
19111;SDS011;9688;51.906;8.376;2022-11-15T03:17:45;8.63;;;6.83;;
19111;SDS011;9688;51.906;8.376;2022-11-15T03:20:33;10.57;;;6.90;;
19111;SDS011;9688;51.906;8.376;2022-11-15T03:23:22;8.23;;;6.73;;
19111;SDS011;9688;51.906;8.376;2022-11-15T03:26:09;9.97;;;7.00;;
19111;SDS011;9688;51.906;8.376;2022-11-15T03:28:59;11.03;;;7.17;;
19111;SDS011;9688;51.906;8.376;2022-11-15T03:31:54;11.20;;;7.47;;
19111;SDS011;9688;51.906;8.376;2022-11-15T03:34:47;10.97;;;7.03;;
19111;SDS011;9688;51.906;8.376;2022-11-15T03:37:44;11.20;;;8.10;;
19111;SDS011;9688;51.906;8.376;2022-11-15T03:40:36;11.80;;;7.63;;
19111;SDS011;9688;51.906;8.376;2022-11-15T03:43:25;12.20;;;7.50;;
19111;SDS011;9688;51.906;8.376;2022-11-15T03:46:19;9.43;;;7.10;;
19111;SDS011;9688;51.906;8.376;2022-11-15T03:49:11;11.47;;;7.67;;
19111;SDS011;9688;51.906;8.376;2022-11-15T03:52:02;12.37;;;7.60;;
19111;SDS011;9688;51.906;8.376;2022-11-15T03:54:50;12.00;;;6.80;;
19111;SDS011;9688;51.906;8.376;2022-11-15T03:57:39;12.67;;;7.87;;
19111;SDS011;9688;51.906;8.376;2022-11-15T04:00:24;14.17;;;7.70;;
19111;SDS011;9688;51.906;8.376;2022-11-15T04:03:11;12.77;;;7.70;;
19111;SDS011;9688;51.906;8.376;2022-11-15T04:05:56;14.27;;;7.90;;
19111;SDS011;9688;51.906;8.376;2022-11-15T04:08:41;12.67;;;8.40;;
19111;SDS011;9688;51.906;8.376;2022-11-15T04:11:27;12.07;;;7.77;;
19111;SDS011;9688;51.906;8.376;2022-11-15T04:14:14;12.93;;;8.33;;
19111;SDS011;9688;51.906;8.376;2022-11-15T04:16:59;11.40;;;7.83;;
19111;SDS011;9688;51.906;8.376;2022-11-15T04:19:44;11.33;;;8.73;;
19111;SDS011;9688;51.906;8.376;2022-11-15T04:22:51;15.30;;;8.20;;
19111;SDS011;9688;51.906;8.376;2022-11-15T04:25:55;14.17;;;8.60;;
19111;SDS011;9688;51.906;8.376;2022-11-15T04:28:43;12.97;;;8.80;;
19111;SDS011;9688;51.906;8.376;2022-11-15T04:31:44;15.87;;;9.10;;
19111;SDS011;9688;51.906;8.376;2022-11-15T04:34:30;15.43;;;9.27;;
19111;SDS011;9688;51.906;8.376;2022-11-15T04:37:16;14.87;;;9.00;;
19111;SDS011;9688;51.906;8.376;2022-11-15T04:40:08;20.03;;;10.17;;
19111;SDS011;9688;51.906;8.376;2022-11-15T04:42:53;16.13;;;9.53;;
19111;SDS011;9688;51.906;8.376;2022-11-15T04:45:39;15.03;;;9.37;;
19111;SDS011;9688;51.906;8.376;2022-11-15T04:48:25;16.17;;;9.63;;
19111;SDS011;9688;51.906;8.376;2022-11-15T04:51:11;17.17;;;10.60;;
19111;SDS011;9688;51.906;8.376;2022-11-15T04:53:56;15.53;;;9.77;;
19111;SDS011;9688;51.906;8.376;2022-11-15T04:56:42;18.00;;;10.60;;
19111;SDS011;9688;51.906;8.376;2022-11-15T04:59:27;15.80;;;9.97;;
19111;SDS011;9688;51.906;8.376;2022-11-15T05:02:12;17.07;;;9.47;;
19111;SDS011;9688;51.906;8.376;2022-11-15T05:04:59;17.97;;;10.37;;
19111;SDS011;9688;51.906;8.376;2022-11-15T05:07:43;17.23;;;9.70;;
19111;SDS011;9688;51.906;8.376;2022-11-15T05:10:29;15.13;;;9.80;;
19111;SDS011;9688;51.906;8.376;2022-11-15T05:13:14;17.67;;;9.10;;
19111;SDS011;9688;51.906;8.376;2022-11-15T05:16:00;14.10;;;9.70;;
19111;SDS011;9688;51.906;8.376;2022-11-15T05:18:45;15.47;;;9.63;;
19111;SDS011;9688;51.906;8.376;2022-11-15T05:21:33;15.70;;;9.70;;
19111;SDS011;9688;51.906;8.376;2022-11-15T05:24:19;15.33;;;10.30;;
19111;SDS011;9688;51.906;8.376;2022-11-15T05:27:04;16.03;;;9.93;;
19111;SDS011;9688;51.906;8.376;2022-11-15T05:29:49;16.03;;;9.80;;
19111;SDS011;9688;51.906;8.376;2022-11-15T05:32:35;13.93;;;9.67;;
19111;SDS011;9688;51.906;8.376;2022-11-15T05:35:22;14.87;;;9.67;;
19111;SDS011;9688;51.906;8.376;2022-11-15T05:38:16;14.53;;;9.80;;
19111;SDS011;9688;51.906;8.376;2022-11-15T05:41:02;16.83;;;9.63;;
19111;SDS011;9688;51.906;8.376;2022-11-15T05:43:48;14.83;;;8.77;;
19111;SDS011;9688;51.906;8.376;2022-11-15T05:46:35;12.13;;;9.13;;
19111;SDS011;9688;51.906;8.376;2022-11-15T05:49:24;15.00;;;8.90;;
19111;SDS011;9688;51.906;8.376;2022-11-15T05:52:15;14.30;;;10.07;;
19111;SDS011;9688;51.906;8.376;2022-11-15T05:55:07;13.80;;;9.70;;
19111;SDS011;9688;51.906;8.376;2022-11-15T05:57:54;14.37;;;9.83;;
19111;SDS011;9688;51.906;8.376;2022-11-15T06:00:39;16.27;;;9.37;;
19111;SDS011;9688;51.906;8.376;2022-11-15T06:03:27;13.80;;;9.60;;
19111;SDS011;9688;51.906;8.376;2022-11-15T06:06:12;20.67;;;10.13;;
19111;SDS011;9688;51.906;8.376;2022-11-15T06:08:58;13.97;;;9.47;;
19111;SDS011;9688;51.906;8.376;2022-11-15T06:11:44;14.40;;;9.73;;
19111;SDS011;9688;51.906;8.376;2022-11-15T06:14:30;15.03;;;9.57;;
19111;SDS011;9688;51.906;8.376;2022-11-15T06:17:15;15.63;;;9.67;;
19111;SDS011;9688;51.906;8.376;2022-11-15T06:20:01;14.30;;;10.00;;
19111;SDS011;9688;51.906;8.376;2022-11-15T06:22:55;15.67;;;10.20;;
19111;SDS011;9688;51.906;8.376;2022-11-15T06:25:41;13.13;;;9.07;;
19111;SDS011;9688;51.906;8.376;2022-11-15T06:28:29;16.03;;;10.03;;
19111;SDS011;9688;51.906;8.376;2022-11-15T06:31:15;12.93;;;9.60;;
19111;SDS011;9688;51.906;8.376;2022-11-15T06:34:00;11.57;;;8.60;;
19111;SDS011;9688;51.906;8.376;2022-11-15T06:36:47;12.67;;;9.13;;
19111;SDS011;9688;51.906;8.376;2022-11-15T06:39:33;12.23;;;8.53;;
19111;SDS011;9688;51.906;8.376;2022-11-15T06:42:18;14.23;;;8.87;;
19111;SDS011;9688;51.906;8.376;2022-11-15T06:45:06;12.37;;;8.20;;
19111;SDS011;9688;51.906;8.376;2022-11-15T06:47:52;12.07;;;8.27;;
19111;SDS011;9688;51.906;8.376;2022-11-15T06:50:38;11.70;;;7.87;;
19111;SDS011;9688;51.906;8.376;2022-11-15T06:53:25;9.83;;;7.80;;
19111;SDS011;9688;51.906;8.376;2022-11-15T06:56:14;15.03;;;8.13;;
19111;SDS011;9688;51.906;8.376;2022-11-15T06:59:02;9.00;;;6.93;;
19111;SDS011;9688;51.906;8.376;2022-11-15T07:01:50;11.30;;;7.30;;
19111;SDS011;9688;51.906;8.376;2022-11-15T07:04:35;10.27;;;7.70;;
19111;SDS011;9688;51.906;8.376;2022-11-15T07:07:21;13.03;;;7.97;;
19111;SDS011;9688;51.906;8.376;2022-11-15T07:10:07;9.37;;;7.27;;
19111;SDS011;9688;51.906;8.376;2022-11-15T07:12:54;9.50;;;6.90;;
19111;SDS011;9688;51.906;8.376;2022-11-15T07:15:41;8.93;;;7.10;;
19111;SDS011;9688;51.906;8.376;2022-11-15T07:18:28;12.43;;;7.53;;
19111;SDS011;9688;51.906;8.376;2022-11-15T07:21:14;10.87;;;7.67;;
19111;SDS011;9688;51.906;8.376;2022-11-15T07:23:59;11.90;;;7.47;;
19111;SDS011;9688;51.906;8.376;2022-11-15T07:26:45;10.83;;;6.63;;
19111;SDS011;9688;51.906;8.376;2022-11-15T07:29:30;10.97;;;6.73;;
19111;SDS011;9688;51.906;8.376;2022-11-15T07:32:15;9.80;;;6.90;;
19111;SDS011;9688;51.906;8.376;2022-11-15T07:35:03;9.77;;;6.97;;
19111;SDS011;9688;51.906;8.376;2022-11-15T07:37:54;12.83;;;7.10;;
19111;SDS011;9688;51.906;8.376;2022-11-15T07:40:44;8.87;;;6.63;;
19111;SDS011;9688;51.906;8.376;2022-11-15T07:43:32;12.23;;;6.17;;
19111;SDS011;9688;51.906;8.376;2022-11-15T07:46:18;8.37;;;6.57;;
19111;SDS011;9688;51.906;8.376;2022-11-15T07:49:08;8.13;;;6.73;;
19111;SDS011;9688;51.906;8.376;2022-11-15T07:51:58;9.20;;;6.57;;
19111;SDS011;9688;51.906;8.376;2022-11-15T07:54:45;6.57;;;5.80;;
19111;SDS011;9688;51.906;8.376;2022-11-15T07:57:33;7.57;;;5.83;;
19111;SDS011;9688;51.906;8.376;2022-11-15T08:00:20;7.93;;;5.93;;
19111;SDS011;9688;51.906;8.376;2022-11-15T08:03:07;8.83;;;5.70;;
19111;SDS011;9688;51.906;8.376;2022-11-15T08:05:58;7.43;;;5.90;;
19111;SDS011;9688;51.906;8.376;2022-11-15T08:08:45;7.73;;;5.73;;
19111;SDS011;9688;51.906;8.376;2022-11-15T08:11:32;8.83;;;5.57;;
19111;SDS011;9688;51.906;8.376;2022-11-15T08:14:17;10.60;;;5.97;;
19111;SDS011;9688;51.906;8.376;2022-11-15T08:17:05;9.20;;;5.77;;
19111;SDS011;9688;51.906;8.376;2022-11-15T08:19:50;7.80;;;5.67;;
19111;SDS011;9688;51.906;8.376;2022-11-15T08:22:36;6.77;;;5.60;;
19111;SDS011;9688;51.906;8.376;2022-11-15T08:25:23;7.80;;;5.67;;
19111;SDS011;9688;51.906;8.376;2022-11-15T08:28:10;5.50;;;4.50;;
19111;SDS011;9688;51.906;8.376;2022-11-15T08:30:56;6.43;;;4.77;;
19111;SDS011;9688;51.906;8.376;2022-11-15T08:33:42;6.50;;;4.57;;
19111;SDS011;9688;51.906;8.376;2022-11-15T08:36:30;4.53;;;4.13;;
19111;SDS011;9688;51.906;8.376;2022-11-15T08:39:17;6.37;;;4.00;;
19111;SDS011;9688;51.906;8.376;2022-11-15T08:42:04;4.53;;;3.67;;
19111;SDS011;9688;51.906;8.376;2022-11-15T08:44:51;5.33;;;3.43;;
19111;SDS011;9688;51.906;8.376;2022-11-15T08:47:38;5.73;;;4.27;;
19111;SDS011;9688;51.906;8.376;2022-11-15T08:50:26;4.03;;;3.30;;
19111;SDS011;9688;51.906;8.376;2022-11-15T08:53:13;5.43;;;3.47;;
19111;SDS011;9688;51.906;8.376;2022-11-15T08:55:59;5.30;;;3.20;;
19111;SDS011;9688;51.906;8.376;2022-11-15T08:58:46;2.90;;;2.70;;
19111;SDS011;9688;51.906;8.376;2022-11-15T09:01:32;3.43;;;3.13;;
19111;SDS011;9688;51.906;8.376;2022-11-15T09:04:17;3.20;;;2.90;;
19111;SDS011;9688;51.906;8.376;2022-11-15T09:07:03;3.80;;;3.00;;
19111;SDS011;9688;51.906;8.376;2022-11-15T09:09:48;3.43;;;3.13;;
19111;SDS011;9688;51.906;8.376;2022-11-15T09:12:34;3.10;;;2.80;;
19111;SDS011;9688;51.906;8.376;2022-11-15T09:15:21;3.03;;;2.83;;
19111;SDS011;9688;51.906;8.376;2022-11-15T09:18:07;2.47;;;2.23;;
19111;SDS011;9688;51.906;8.376;2022-11-15T09:20:55;5.23;;;2.00;;
19111;SDS011;9688;51.906;8.376;2022-11-15T09:23:42;3.07;;;2.50;;
19111;SDS011;9688;51.906;8.376;2022-11-15T09:26:28;2.80;;;2.17;;
19111;SDS011;9688;51.906;8.376;2022-11-15T09:29:13;4.33;;;2.10;;
19111;SDS011;9688;51.906;8.376;2022-11-15T09:32:00;2.33;;;2.23;;
19111;SDS011;9688;51.906;8.376;2022-11-15T09:34:48;2.17;;;1.97;;
19111;SDS011;9688;51.906;8.376;2022-11-15T09:37:36;2.67;;;2.20;;
19111;SDS011;9688;51.906;8.376;2022-11-15T09:40:27;2.80;;;2.40;;
19111;SDS011;9688;51.906;8.376;2022-11-15T09:46:27;2.20;;;2.10;;
19111;SDS011;9688;51.906;8.376;2022-11-15T09:49:22;2.33;;;2.00;;
19111;SDS011;9688;51.906;8.376;2022-11-15T09:52:08;2.10;;;2.00;;
19111;SDS011;9688;51.906;8.376;2022-11-15T09:54:56;2.20;;;2.10;;
19111;SDS011;9688;51.906;8.376;2022-11-15T09:57:44;4.20;;;2.03;;
19111;SDS011;9688;51.906;8.376;2022-11-15T10:00:38;2.43;;;1.80;;
19111;SDS011;9688;51.906;8.376;2022-11-15T10:03:28;1.90;;;1.70;;
19111;SDS011;9688;51.906;8.376;2022-11-15T10:06:21;2.17;;;1.67;;
19111;SDS011;9688;51.906;8.376;2022-11-15T10:09:12;1.80;;;1.70;;
19111;SDS011;9688;51.906;8.376;2022-11-15T10:12:02;1.80;;;1.70;;
19111;SDS011;9688;51.906;8.376;2022-11-15T10:14:48;2.73;;;1.53;;
19111;SDS011;9688;51.906;8.376;2022-11-15T10:17:43;2.03;;;1.87;;
19111;SDS011;9688;51.906;8.376;2022-11-15T10:20:50;2.80;;;1.50;;
19111;SDS011;9688;51.906;8.376;2022-11-15T10:23:41;2.13;;;1.53;;
19111;SDS011;9688;51.906;8.376;2022-11-15T10:26:27;1.33;;;1.30;;
19111;SDS011;9688;51.906;8.376;2022-11-15T10:29:17;1.90;;;1.50;;
19111;SDS011;9688;51.906;8.376;2022-11-15T10:32:04;2.50;;;1.40;;
19111;SDS011;9688;51.906;8.376;2022-11-15T10:34:50;1.83;;;1.50;;
19111;SDS011;9688;51.906;8.376;2022-11-15T10:37:37;2.70;;;1.67;;
19111;SDS011;9688;51.906;8.376;2022-11-15T10:40:24;1.63;;;1.50;;
19111;SDS011;9688;51.906;8.376;2022-11-15T10:43:15;3.10;;;1.37;;
19111;SDS011;9688;51.906;8.376;2022-11-15T10:46:11;1.97;;;1.50;;
19111;SDS011;9688;51.906;8.376;2022-11-15T10:49:14;3.33;;;1.40;;
19111;SDS011;9688;51.906;8.376;2022-11-15T10:52:02;3.10;;;1.70;;
19111;SDS011;9688;51.906;8.376;2022-11-15T10:54:59;3.30;;;1.73;;
19111;SDS011;9688;51.906;8.376;2022-11-15T10:57:50;2.47;;;2.00;;
19111;SDS011;9688;51.906;8.376;2022-11-15T11:00:38;1.63;;;1.53;;
19111;SDS011;9688;51.906;8.376;2022-11-15T11:03:28;3.23;;;2.17;;
19111;SDS011;9688;51.906;8.376;2022-11-15T11:06:17;2.10;;;1.90;;
19111;SDS011;9688;51.906;8.376;2022-11-15T11:09:04;1.67;;;1.57;;
19111;SDS011;9688;51.906;8.376;2022-11-15T11:11:51;1.83;;;1.67;;
19111;SDS011;9688;51.906;8.376;2022-11-15T11:14:38;1.50;;;1.40;;
19111;SDS011;9688;51.906;8.376;2022-11-15T11:17:28;1.70;;;1.60;;
19111;SDS011;9688;51.906;8.376;2022-11-15T11:20:23;2.03;;;1.70;;
19111;SDS011;9688;51.906;8.376;2022-11-15T11:23:32;2.00;;;1.60;;
19111;SDS011;9688;51.906;8.376;2022-11-15T11:26:32;2.00;;;1.90;;
19111;SDS011;9688;51.906;8.376;2022-11-15T11:29:27;1.60;;;1.60;;
19111;SDS011;9688;51.906;8.376;2022-11-15T11:32:29;2.10;;;1.63;;
19111;SDS011;9688;51.906;8.376;2022-11-15T11:35:27;2.07;;;1.80;;
19111;SDS011;9688;51.906;8.376;2022-11-15T11:38:19;2.13;;;1.70;;
19111;SDS011;9688;51.906;8.376;2022-11-15T11:41:20;3.10;;;1.80;;
19111;SDS011;9688;51.906;8.376;2022-11-15T11:44:23;1.97;;;1.87;;
19111;SDS011;9688;51.906;8.376;2022-11-15T11:47:18;2.10;;;2.00;;
19111;SDS011;9688;51.906;8.376;2022-11-15T11:50:13;2.87;;;1.57;;
19111;SDS011;9688;51.906;8.376;2022-11-15T11:53:03;2.13;;;1.93;;
19111;SDS011;9688;51.906;8.376;2022-11-15T11:55:56;2.10;;;1.63;;
19111;SDS011;9688;51.906;8.376;2022-11-15T11:58:48;2.87;;;1.60;;
19111;SDS011;9688;51.906;8.376;2022-11-15T12:01:41;1.70;;;1.60;;
19111;SDS011;9688;51.906;8.376;2022-11-15T12:04:30;3.33;;;1.70;;
19111;SDS011;9688;51.906;8.376;2022-11-15T12:07:22;1.63;;;1.57;;
19111;SDS011;9688;51.906;8.376;2022-11-15T12:10:18;2.23;;;1.70;;
19111;SDS011;9688;51.906;8.376;2022-11-15T12:13:10;3.70;;;1.70;;
19111;SDS011;9688;51.906;8.376;2022-11-15T12:16:05;2.50;;;2.00;;
19111;SDS011;9688;51.906;8.376;2022-11-15T12:18:58;1.87;;;1.67;;
19111;SDS011;9688;51.906;8.376;2022-11-15T12:21:49;1.77;;;1.70;;
19111;SDS011;9688;51.906;8.376;2022-11-15T12:24:44;1.93;;;1.70;;
19111;SDS011;9688;51.906;8.376;2022-11-15T12:27:37;2.40;;;2.27;;
19111;SDS011;9688;51.906;8.376;2022-11-15T12:30:39;1.67;;;1.57;;
19111;SDS011;9688;51.906;8.376;2022-11-15T12:33:31;2.57;;;1.80;;
19111;SDS011;9688;51.906;8.376;2022-11-15T12:36:34;8.80;;;2.53;;
19111;SDS011;9688;51.906;8.376;2022-11-15T12:42:56;1.83;;;1.70;;
19111;SDS011;9688;51.906;8.376;2022-11-15T12:45:44;2.80;;;1.80;;
19111;SDS011;9688;51.906;8.376;2022-11-15T12:54:58;1.67;;;1.57;;
19111;SDS011;9688;51.906;8.376;2022-11-15T12:57:47;1.80;;;1.67;;
19111;SDS011;9688;51.906;8.376;2022-11-15T13:00:36;2.33;;;2.13;;
19111;SDS011;9688;51.906;8.376;2022-11-15T13:03:27;1.90;;;1.63;;
19111;SDS011;9688;51.906;8.376;2022-11-15T13:12:55;3.77;;;1.80;;
19111;SDS011;9688;51.906;8.376;2022-11-15T13:15:46;2.57;;;1.90;;
19111;SDS011;9688;51.906;8.376;2022-11-15T13:18:40;1.77;;;1.40;;
19111;SDS011;9688;51.906;8.376;2022-11-15T13:21:25;3.30;;;1.57;;
19111;SDS011;9688;51.906;8.376;2022-11-15T13:24:29;4.43;;;1.80;;
19111;SDS011;9688;51.906;8.376;2022-11-15T13:27:15;2.37;;;1.50;;
19111;SDS011;9688;51.906;8.376;2022-11-15T13:30:23;2.50;;;1.50;;
19111;SDS011;9688;51.906;8.376;2022-11-15T13:33:14;2.47;;;1.70;;
19111;SDS011;9688;51.906;8.376;2022-11-15T13:36:03;126.17;;;11.00;;
19111;SDS011;9688;51.906;8.376;2022-11-15T13:38:54;13.10;;;3.13;;
19111;SDS011;9688;51.906;8.376;2022-11-15T13:41:45;2.00;;;1.73;;
19111;SDS011;9688;51.906;8.376;2022-11-15T13:44:33;3.70;;;1.70;;
19111;SDS011;9688;51.906;8.376;2022-11-15T13:47:20;2.83;;;1.50;;
19111;SDS011;9688;51.906;8.376;2022-11-15T13:50:10;4.63;;;2.10;;
19111;SDS011;9688;51.906;8.376;2022-11-15T13:52:58;1.60;;;1.50;;
19111;SDS011;9688;51.906;8.376;2022-11-15T13:55:46;1.57;;;1.50;;
19111;SDS011;9688;51.906;8.376;2022-11-15T13:58:32;2.07;;;1.23;;
19111;SDS011;9688;51.906;8.376;2022-11-15T14:01:18;1.87;;;1.40;;
19111;SDS011;9688;51.906;8.376;2022-11-15T14:04:09;1.53;;;1.50;;
19111;SDS011;9688;51.906;8.376;2022-11-15T14:06:58;4.00;;;1.77;;
19111;SDS011;9688;51.906;8.376;2022-11-15T14:09:46;1.93;;;1.60;;
19111;SDS011;9688;51.906;8.376;2022-11-15T14:12:32;1.80;;;1.50;;
19111;SDS011;9688;51.906;8.376;2022-11-15T14:15:24;1.73;;;1.30;;
19111;SDS011;9688;51.906;8.376;2022-11-15T14:21:27;1.47;;;1.37;;
19111;SDS011;9688;51.906;8.376;2022-11-15T14:24:16;1.40;;;1.30;;
19111;SDS011;9688;51.906;8.376;2022-11-15T14:27:17;3.57;;;1.87;;
19111;SDS011;9688;51.906;8.376;2022-11-15T14:30:12;1.40;;;1.40;;
19111;SDS011;9688;51.906;8.376;2022-11-15T14:33:00;4.57;;;1.80;;
19111;SDS011;9688;51.906;8.376;2022-11-15T14:35:48;5.43;;;1.60;;
19111;SDS011;9688;51.906;8.376;2022-11-15T14:38:36;1.60;;;1.50;;
19111;SDS011;9688;51.906;8.376;2022-11-15T14:41:23;5.57;;;1.60;;
19111;SDS011;9688;51.906;8.376;2022-11-15T14:44:11;1.50;;;1.40;;
19111;SDS011;9688;51.906;8.376;2022-11-15T14:47:03;2.13;;;1.80;;
19111;SDS011;9688;51.906;8.376;2022-11-15T14:49:48;2.67;;;1.33;;
19111;SDS011;9688;51.906;8.376;2022-11-15T14:52:35;2.10;;;1.60;;
19111;SDS011;9688;51.906;8.376;2022-11-15T14:55:23;1.80;;;1.70;;
19111;SDS011;9688;51.906;8.376;2022-11-15T14:58:13;3.27;;;1.83;;
19111;SDS011;9688;51.906;8.376;2022-11-15T15:00:58;2.90;;;1.43;;
19111;SDS011;9688;51.906;8.376;2022-11-15T15:03:44;2.63;;;1.50;;
19111;SDS011;9688;51.906;8.376;2022-11-15T15:06:32;1.57;;;1.47;;
19111;SDS011;9688;51.906;8.376;2022-11-15T15:09:20;1.40;;;1.40;;
19111;SDS011;9688;51.906;8.376;2022-11-15T15:12:08;3.63;;;1.50;;
19111;SDS011;9688;51.906;8.376;2022-11-15T15:14:59;2.27;;;1.50;;
19111;SDS011;9688;51.906;8.376;2022-11-15T15:17:45;2.33;;;1.50;;
19111;SDS011;9688;51.906;8.376;2022-11-15T15:20:31;2.50;;;1.70;;
19111;SDS011;9688;51.906;8.376;2022-11-15T15:23:18;2.53;;;1.60;;
19111;SDS011;9688;51.906;8.376;2022-11-15T15:26:09;3.50;;;1.70;;
19111;SDS011;9688;51.906;8.376;2022-11-15T15:28:59;2.53;;;1.40;;
19111;SDS011;9688;51.906;8.376;2022-11-15T15:31:50;1.47;;;1.37;;
19111;SDS011;9688;51.906;8.376;2022-11-15T15:34:38;1.73;;;1.40;;
19111;SDS011;9688;51.906;8.376;2022-11-15T15:37:25;1.67;;;1.60;;
19111;SDS011;9688;51.906;8.376;2022-11-15T15:40:14;1.97;;;1.50;;
19111;SDS011;9688;51.906;8.376;2022-11-15T15:43:06;3.77;;;1.60;;
19111;SDS011;9688;51.906;8.376;2022-11-15T15:45:55;3.10;;;1.70;;
19111;SDS011;9688;51.906;8.376;2022-11-15T15:48:41;3.50;;;1.70;;
19111;SDS011;9688;51.906;8.376;2022-11-15T15:51:28;2.60;;;1.93;;
19111;SDS011;9688;51.906;8.376;2022-11-15T15:54:13;3.97;;;2.50;;
19111;SDS011;9688;51.906;8.376;2022-11-15T15:56:59;3.27;;;2.50;;
19111;SDS011;9688;51.906;8.376;2022-11-15T15:59:45;2.37;;;2.17;;
19111;SDS011;9688;51.906;8.376;2022-11-15T16:02:34;3.43;;;2.47;;
19111;SDS011;9688;51.906;8.376;2022-11-15T16:05:20;4.23;;;2.33;;
19111;SDS011;9688;51.906;8.376;2022-11-15T16:08:20;6.30;;;2.13;;
19111;SDS011;9688;51.906;8.376;2022-11-15T16:11:06;4.23;;;2.60;;
19111;SDS011;9688;51.906;8.376;2022-11-15T16:13:53;4.57;;;2.77;;
19111;SDS011;9688;51.906;8.376;2022-11-15T16:16:39;5.53;;;2.63;;
19111;SDS011;9688;51.906;8.376;2022-11-15T16:19:27;4.77;;;2.60;;
19111;SDS011;9688;51.906;8.376;2022-11-15T16:22:15;3.87;;;2.43;;
19111;SDS011;9688;51.906;8.376;2022-11-15T16:25:01;4.00;;;2.83;;
19111;SDS011;9688;51.906;8.376;2022-11-15T16:27:47;3.90;;;2.20;;
19111;SDS011;9688;51.906;8.376;2022-11-15T16:30:33;3.63;;;2.70;;
19111;SDS011;9688;51.906;8.376;2022-11-15T16:33:19;3.83;;;2.80;;
19111;SDS011;9688;51.906;8.376;2022-11-15T16:36:12;3.73;;;2.93;;
19111;SDS011;9688;51.906;8.376;2022-11-15T16:39:05;4.27;;;2.90;;
19111;SDS011;9688;51.906;8.376;2022-11-15T16:41:52;3.90;;;2.70;;
19111;SDS011;9688;51.906;8.376;2022-11-15T16:44:38;3.23;;;2.50;;
19111;SDS011;9688;51.906;8.376;2022-11-15T16:47:24;3.20;;;2.90;;
19111;SDS011;9688;51.906;8.376;2022-11-15T16:50:15;4.47;;;2.63;;
19111;SDS011;9688;51.906;8.376;2022-11-15T16:53:08;2.83;;;2.50;;
19111;SDS011;9688;51.906;8.376;2022-11-15T16:55:55;3.20;;;2.73;;
19111;SDS011;9688;51.906;8.376;2022-11-15T16:58:40;3.50;;;2.67;;
19111;SDS011;9688;51.906;8.376;2022-11-15T17:01:27;4.50;;;2.60;;
19111;SDS011;9688;51.906;8.376;2022-11-15T17:04:17;2.83;;;2.60;;
19111;SDS011;9688;51.906;8.376;2022-11-15T17:07:07;5.43;;;2.73;;
19111;SDS011;9688;51.906;8.376;2022-11-15T17:09:55;4.50;;;2.73;;
19111;SDS011;9688;51.906;8.376;2022-11-15T17:12:41;4.57;;;2.53;;
19111;SDS011;9688;51.906;8.376;2022-11-15T17:15:30;2.73;;;2.53;;
19111;SDS011;9688;51.906;8.376;2022-11-15T17:18:16;7.40;;;3.13;;
19111;SDS011;9688;51.906;8.376;2022-11-15T17:21:05;3.97;;;2.50;;
19111;SDS011;9688;51.906;8.376;2022-11-15T17:23:52;3.00;;;2.63;;
19111;SDS011;9688;51.906;8.376;2022-11-15T17:26:39;2.90;;;2.60;;
19111;SDS011;9688;51.906;8.376;2022-11-15T17:29:26;2.70;;;2.50;;
19111;SDS011;9688;51.906;8.376;2022-11-15T17:32:13;4.47;;;2.40;;